Time;durP1;ratioP1;P1;durP2;ratioP2;P2;SDS_P1;SDS_P2;PMS_P1;PMS_P2;Temp;Humidity;BMP_temperature;BMP_pressure;BME280_temperature;BME280_humidity;BME280_pressure;Samples;Min_cycle;Max_cycle;Signal;HPM_P1;HPM_P2
2023/12/27 00:03:13;;;;;;;;;;;;;;;20.56;40.48;96238.25;10465079;28;1972;-60
2023/12/27 00:08:13;;;;;;;;;;;;;;;20.57;40.00;96239.03;10464770;28;2043;-60
2023/12/27 00:13:14;;;;;;;;;;;;;;;20.56;39.99;96232.19;10468069;28;5062;-60
2023/12/27 00:18:17;;;;;;;;;;;;;;;20.55;40.10;96239.28;10455382;28;2185;-60
2023/12/27 00:23:17;;;;;;;;;;;;;;;20.53;40.01;96228.22;10461464;28;1905;-60
2023/12/27 00:28:19;;;;;;;;;;;;;;;20.56;39.70;96227.72;10449868;28;1978;-60
2023/12/27 00:33:19;;;;;;;;;;;;;;;20.55;39.65;96235.88;10462142;28;1957;-60
2023/12/27 00:38:19;;;;;;;;;;;;;;;20.54;39.17;96244.84;10452266;28;1987;-60
2023/12/27 00:43:20;;;;;;;;;;;;;;;20.52;40.29;96237.19;10459913;28;1979;-60
2023/12/27 00:48:20;;;;;;;;;;;;;;;20.51;40.17;96243.50;10465284;28;1855;-60
2023/12/27 00:53:20;;;;;;;;;;;;;;;20.51;39.77;96248.78;10460373;28;2041;-61
2023/12/27 00:58:20;;;;;;;;;;;;;;;20.51;39.51;96245.34;10464707;28;1863;-60
2023/12/27 01:03:21;;;;;;;;;;;;;;;20.50;39.72;96254.31;10460070;28;2061;-60
2023/12/27 01:08:21;;;;;;;;;;;;;;;20.52;39.22;96244.31;10460058;28;2296;-60
2023/12/27 01:13:21;;;;;;;;;;;;;;;20.51;39.88;96235.59;10466043;28;5128;-60
2023/12/27 01:18:21;;;;;;;;;;;;;;;20.52;39.51;96237.19;10461378;28;1862;-60
2023/12/27 01:23:22;;;;;;;;;;;;;;;20.53;39.50;96262.47;10460658;28;1934;-60
2023/12/27 01:28:22;;;;;;;;;;;;;;;20.55;39.34;96265.63;10462587;28;2014;-60
2023/12/27 01:33:22;;;;;;;;;;;;;;;20.56;39.14;96269.88;10465161;28;2041;-59
2023/12/27 01:38:22;;;;;;;;;;;;;;;20.59;38.64;96274.59;10447767;28;1876;-60
2023/12/27 01:43:23;;;;;;;;;;;;;;;20.61;38.73;96282.25;10466273;28;2156;-60
2023/12/27 01:48:23;;;;;;;;;;;;;;;20.59;38.90;96274.59;10464201;28;1998;-60
2023/12/27 01:53:23;;;;;;;;;;;;;;;20.64;38.59;96287.78;10463008;28;1970;-60
2023/12/27 01:58:24;;;;;;;;;;;;;;;20.63;39.13;96275.66;10462566;28;2104;-60
2023/12/27 02:03:25;;;;;;;;;;;;;;;20.63;39.13;96272.25;10449620;28;2294;-60
2023/12/27 02:08:26;;;;;;;;;;;;;;;20.65;38.96;96273.56;10458064;28;1881;-59
2023/12/27 02:13:26;;;;;;;;;;;;;;;20.65;38.90;96260.38;10462906;28;5134;-59
2023/12/27 02:18:26;;;;;;;;;;;;;;;20.67;38.71;96257.50;10462727;28;1844;-59
2023/12/27 02:23:27;;;;;;;;;;;;;;;20.68;38.35;96251.16;10468194;28;2075;-60
2023/12/27 02:28:27;;;;;;;;;;;;;;;20.69;38.31;96250.91;10445229;28;2141;-59
2023/12/27 02:33:27;;;;;;;;;;;;;;;20.69;38.49;96242.22;10450753;28;2021;-58
2023/12/27 02:38:28;;;;;;;;;;;;;;;20.71;38.10;96230.34;10459126;28;2187;-58
2023/12/27 02:43:28;;;;;;;;;;;;;;;20.71;38.17;96230.34;10456711;28;2059;-59
2023/12/27 02:48:28;;;;;;;;;;;;;;;20.72;38.47;96221.41;10462942;28;1921;-58
2023/12/27 02:53:28;;;;;;;;;;;;;;;20.73;38.58;96225.63;10454699;28;1921;-59
2023/12/27 02:58:29;;;;;;;;;;;;;;;20.72;38.46;96208.25;10459696;28;2029;-59
2023/12/27 03:03:29;;;;;;;;;;;;;;;20.75;37.99;96199.78;10462880;28;1971;-59
2023/12/27 03:08:29;;;;;;;;;;;;;;;20.74;38.10;96203.50;10464257;28;1897;-58
2023/12/27 03:13:30;;;;;;;;;;;;;;;20.71;38.26;96201.38;10465837;28;5038;-59
2023/12/27 03:18:30;;;;;;;;;;;;;;;20.70;38.40;96207.72;10462865;28;2225;-59
2023/12/27 03:23:30;;;;;;;;;;;;;;;20.71;38.11;96197.97;10448348;28;2157;-59
2023/12/27 03:28:32;;;;;;;;;;;;;;;20.68;37.77;96183.47;10457087;28;1979;-60
2023/12/27 03:33:33;;;;;;;;;;;;;;;20.66;38.01;96177.69;10471287;28;1929;-59
2023/12/27 03:38:33;;;;;;;;;;;;;;;20.63;37.93;96183.47;10468249;28;1911;-59
2023/12/27 03:43:34;;;;;;;;;;;;;;;20.61;37.81;96190.84;10467552;28;1975;-59
2023/12/27 03:48:34;;;;;;;;;;;;;;;20.58;38.02;96188.75;10470627;28;1875;-59
2023/12/27 03:53:34;;;;;;;;;;;;;;;20.56;37.59;96180.31;10454555;28;1877;-59
2023/12/27 03:58:34;;;;;;;;;;;;;;;20.51;37.92;96188.19;10466961;28;1949;-59
2023/12/27 04:03:35;;;;;;;;;;;;;;;20.50;37.85;96180.56;10466264;28;1982;-59
2023/12/27 04:08:35;;;;;;;;;;;;;;;20.47;38.00;96187.16;10464769;28;1935;-59
2023/12/27 04:13:35;;;;;;;;;;;;;;;20.43;37.72;96190.56;10467646;28;5066;-59
2023/12/27 04:18:36;;;;;;;;;;;;;;;20.40;37.78;96191.91;10463081;28;2255;-60
2023/12/27 04:23:36;;;;;;;;;;;;;;;20.38;38.07;96201.09;10466246;28;2065;-59
2023/12/27 04:28:36;;;;;;;;;;;;;;;20.34;38.08;96198.19;10458061;28;2422;-58
2023/12/27 04:33:36;;;;;;;;;;;;;;;20.30;37.72;96210.28;10475572;28;2040;-58
2023/12/27 04:38:37;;;;;;;;;;;;;;;20.28;38.11;96215.00;10464253;28;1978;-60
2023/12/27 04:43:37;;;;;;;;;;;;;;;20.25;38.13;96211.09;10461997;28;1962;-61
2023/12/27 04:48:37;;;;;;;;;;;;;;;20.23;37.76;96205.28;10465996;28;1960;-58
2023/12/27 04:53:37;;;;;;;;;;;;;;;20.21;37.83;96204.75;10462530;28;2013;-60
2023/12/27 04:58:38;;;;;;;;;;;;;;;20.18;37.38;96205.22;10460319;28;2173;-60
2023/12/27 05:03:38;;;;;;;;;;;;;;;20.17;37.79;96202.88;10454306;28;2132;-60
2023/12/27 05:08:39;;;;;;;;;;;;;;;20.14;37.88;96203.38;10470064;28;3650;-61
2023/12/27 05:13:39;;;;;;;;;;;;;;;20.11;37.71;96204.69;10444056;28;1982;-60
2023/12/27 05:18:40;;;;;;;;;;;;;;;20.08;37.56;96188.63;10461997;28;2230;-60
2023/12/27 05:23:40;;;;;;;;;;;;;;;20.07;37.46;96187.06;10457184;28;1969;-60
2023/12/27 05:28:41;;;;;;;;;;;;;;;20.05;37.94;96189.16;10455605;28;1884;-61
2023/12/27 05:33:41;;;;;;;;;;;;;;;20.03;37.57;96188.63;10456929;28;1954;-60
2023/12/27 05:38:41;;;;;;;;;;;;;;;20.01;37.67;96196.00;10460203;28;2117;-60
2023/12/27 05:43:41;;;;;;;;;;;;;;;19.98;37.79;96194.66;10459227;28;2041;-61
2023/12/27 05:48:42;;;;;;;;;;;;;;;19.96;37.30;96190.69;10463109;28;1896;-60
2023/12/27 05:53:42;;;;;;;;;;;;;;;19.93;37.85;96183.31;10458385;28;2276;-60
2023/12/27 05:58:42;;;;;;;;;;;;;;;19.90;37.60;96184.63;10456636;28;1901;-60
2023/12/27 06:03:42;;;;;;;;;;;;;;;19.89;37.62;96185.66;10463052;28;1966;-61
2023/12/27 06:08:43;;;;;;;;;;;;;;;19.86;37.20;96178.31;10458274;28;2015;-60
2023/12/27 06:13:43;;;;;;;;;;;;;;;19.85;37.23;96181.19;10457175;28;5010;-60
2023/12/27 06:18:44;;;;;;;;;;;;;;;19.82;37.70;96189.59;10457950;28;1926;-60
2023/12/27 06:23:44;;;;;;;;;;;;;;;19.79;37.57;96188.28;10463940;28;2009;-60
2023/12/27 06:28:45;;;;;;;;;;;;;;;19.76;37.76;96186.16;10455941;28;2198;-60
2023/12/27 06:33:45;;;;;;;;;;;;;;;19.76;37.32;96185.38;10458055;28;2167;-60
2023/12/27 06:38:46;;;;;;;;;;;;;;;19.73;37.24;96189.31;10457952;28;2474;-60
2023/12/27 06:43:46;;;;;;;;;;;;;;;19.72;37.13;96189.56;10462164;28;2135;-60
2023/12/27 06:48:46;;;;;;;;;;;;;;;19.70;37.20;96195.06;10450704;28;1922;-60
2023/12/27 06:53:47;;;;;;;;;;;;;;;19.67;37.59;96186.91;10455409;28;1969;-60
2023/12/27 06:58:47;;;;;;;;;;;;;;;19.65;37.58;96183.75;10454497;28;1886;-60
2023/12/27 07:03:47;;;;;;;;;;;;;;;19.63;37.37;96193.72;10439904;28;2120;-60
2023/12/27 07:08:47;;;;;;;;;;;;;;;19.62;37.40;96186.91;10467160;28;1961;-60
2023/12/27 07:13:48;;;;;;;;;;;;;;;19.59;37.67;96190.03;10463035;28;5227;-61
2023/12/27 07:18:48;;;;;;;;;;;;;;;19.57;37.83;96194.75;10461014;28;2618;-60
2023/12/27 07:23:48;;;;;;;;;;;;;;;19.58;37.99;96193.72;10467363;28;2117;-61
2023/12/27 07:28:49;;;;;;;;;;;;;;;19.60;37.51;96181.09;10472068;28;1979;-62
2023/12/27 07:33:49;;;;;;;;;;;;;;;19.66;37.65;96190.59;10474133;28;1963;-60
2023/12/27 07:38:49;;;;;;;;;;;;;;;19.70;37.67;96196.94;10453447;28;1934;-61
2023/12/27 07:43:49;;;;;;;;;;;;;;;19.74;37.38;96192.72;10458716;28;2085;-59
2023/12/27 07:48:50;;;;;;;;;;;;;;;19.77;37.32;96177.22;10460550;28;1883;-60
2023/12/27 07:53:50;;;;;;;;;;;;;;;19.85;36.97;96183.81;10464245;28;1871;-60
2023/12/27 07:58:51;;;;;;;;;;;;;;;19.88;37.07;96175.41;10466385;28;1973;-60
2023/12/27 08:03:51;;;;;;;;;;;;;;;19.93;37.01;96175.41;10462655;28;3323;-60
2023/12/27 08:08:52;;;;;;;;;;;;;;;19.95;37.20;96191.72;10455660;28;2259;-59
2023/12/27 08:13:52;;;;;;;;;;;;;;;19.99;37.17;96201.50;10468747;28;5098;-57
2023/12/27 08:18:53;;;;;;;;;;;;;;;20.02;36.82;96214.16;10466418;28;1988;-60
2023/12/27 08:23:53;;;;;;;;;;;;;;;20.04;37.06;96224.41;10459409;28;2197;-60
2023/12/27 08:28:53;;;;;;;;;;;;;;;20.07;37.19;96219.41;10464727;28;2076;-58
2023/12/27 08:33:58;;;;;;;;;;;;;;;20.07;36.63;96218.63;10465891;28;2045;-60
2023/12/27 08:38:59;;;;;;;;;;;;;;;20.17;37.40;96219.44;10459992;28;2042;-60
2023/12/27 08:43:59;;;;;;;;;;;;;;;20.26;37.78;96223.19;10455599;28;2272;-59
2023/12/27 08:48:59;;;;;;;;;;;;;;;20.33;37.64;96214.25;10469892;28;1891;-57
2023/12/27 08:53:59;;;;;;;;;;;;;;;20.33;37.77;96216.88;10454776;28;1904;-56
2023/12/27 08:59:00;;;;;;;;;;;;;;;20.40;37.63;96228.75;10467763;28;1903;-58
2023/12/27 09:04:00;;;;;;;;;;;;;;;20.39;37.69;96224.53;10467893;28;1985;-60
2023/12/27 09:09:00;;;;;;;;;;;;;;;20.33;37.80;96238.75;10447493;28;2072;-59
2023/12/27 09:14:01;;;;;;;;;;;;;;;20.33;37.28;96227.41;10466932;28;5070;-61
2023/12/27 09:19:02;;;;;;;;;;;;;;;20.32;36.89;96213.44;10466895;28;1942;-59
2023/12/27 09:24:03;;;;;;;;;;;;;;;20.33;36.99;96212.41;10467004;28;1934;-60
2023/12/27 09:29:04;;;;;;;;;;;;;;;20.34;36.97;96215.84;10449798;28;1974;-61
2023/12/27 09:34:04;;;;;;;;;;;;;;;20.35;37.15;96225.31;10459205;28;2028;-59
2023/12/27 09:39:04;;;;;;;;;;;;;;;20.39;37.10;96211.38;10461932;28;1926;-61
2023/12/27 09:44:05;;;;;;;;;;;;;;;20.36;37.47;96206.59;10458904;28;1950;-58
2023/12/27 09:49:08;;;;;;;;;;;;;;;20.38;37.29;96203.72;10450728;28;2024;-60
2023/12/27 09:54:09;;;;;;;;;;;;;;;20.42;37.62;96200.31;10460575;28;1948;-58
2023/12/27 09:59:11;;;;;;;;;;;;;;;20.43;37.55;96186.09;10464332;28;1849;-60
2023/12/27 10:04:26;;;;;;;;;;;;;;;20.46;37.36;96168.97;10460748;28;2273;-59
2023/12/27 10:09:26;;;;;;;;;;;;;;;20.47;37.48;96157.38;10470368;28;2044;-60
2023/12/27 10:14:27;;;;;;;;;;;;;;;20.51;37.55;96147.91;10474953;28;4941;-60
2023/12/27 10:19:40;;;;;;;;;;;;;;;20.49;37.56;96148.19;10447124;28;2052;-60
2023/12/27 10:24:41;;;;;;;;;;;;;;;20.53;37.71;96138.69;10463169;28;1883;-58
2023/12/27 10:29:50;;;;;;;;;;;;;;;20.56;37.89;96130.28;10442235;28;2096;-58
2023/12/27 10:34:50;;;;;;;;;;;;;;;20.59;38.24;96115.78;10451194;28;2026;-59
2023/12/27 10:39:50;;;;;;;;;;;;;;;20.61;38.27;96090.75;10445466;28;1879;-59
2023/12/27 10:44:50;;;;;;;;;;;;;;;20.64;37.48;96092.88;10452277;28;1980;-59
2023/12/27 10:49:51;;;;;;;;;;;;;;;20.62;37.76;96079.19;10450517;28;2081;-60
2023/12/27 10:54:52;;;;;;;;;;;;;;;20.63;38.04;96069.44;10455004;28;1852;-60
2023/12/27 10:59:52;;;;;;;;;;;;;;;20.66;37.77;96063.63;10452863;28;1933;-60
2023/12/27 11:04:52;;;;;;;;;;;;;;;20.67;37.64;96044.91;10447356;28;1977;-59
2023/12/27 11:09:53;;;;;;;;;;;;;;;20.70;37.77;96046.22;10457811;28;1894;-57
2023/12/27 11:14:53;;;;;;;;;;;;;;;20.72;37.49;96038.84;10458416;28;5204;-58
2023/12/27 11:19:53;;;;;;;;;;;;;;;20.70;37.52;96023.31;10465267;28;2037;-58
2023/12/27 11:24:53;;;;;;;;;;;;;;;20.73;37.49;96011.47;10446372;28;2153;-59
2023/12/27 11:29:54;;;;;;;;;;;;;;;20.72;37.64;96015.94;10461377;28;1899;-59
2023/12/27 11:34:55;;;;;;;;;;;;;;;20.71;37.83;95998.53;10447856;28;2441;-60
2023/12/27 11:39:55;;;;;;;;;;;;;;;20.71;37.84;95989.88;10460196;28;1891;-59
2023/12/27 11:44:57;;;;;;;;;;;;;;;20.70;37.90;95986.44;10458113;28;1967;-60
2023/12/27 11:50:09;;;;;;;;;;;;;;;20.71;38.04;95980.09;10458412;28;1923;-59
2023/12/27 11:55:14;;;;;;;;;;;;;;;20.74;38.14;95990.09;10466100;28;1857;-61
2023/12/27 12:00:23;;;;;;;;;;;;;;;20.76;38.04;95990.63;10466016;28;1875;-60
2023/12/27 12:05:34;;;;;;;;;;;;;;;20.76;38.04;95990.63;10466266;28;1919;-60
2023/12/27 12:10:35;;;;;;;;;;;;;;;20.77;38.11;95988.78;10454773;28;1854;-61
2023/12/27 12:15:35;;;;;;;;;;;;;;;20.77;38.25;95981.66;10460055;28;5073;-60
2023/12/27 12:20:36;;;;;;;;;;;;;;;20.77;38.08;95973.75;10464792;28;2147;-60
2023/12/27 12:25:41;;;;;;;;;;;;;;;20.79;38.25;95963.72;10468844;28;1882;-59
2023/12/27 12:30:44;;;;;;;;;;;;;;;20.81;37.98;95951.06;10449867;28;1950;-58
2023/12/27 12:35:45;;;;;;;;;;;;;;;20.80;38.11;95949.50;10456982;28;1882;-60
2023/12/27 12:40:45;;;;;;;;;;;;;;;20.83;38.01;95943.72;10463024;28;1952;-59
2023/12/27 12:45:45;;;;;;;;;;;;;;;20.84;38.09;95940.00;10452883;28;1914;-60
2023/12/27 12:50:46;;;;;;;;;;;;;;;20.86;38.02;95931.81;10453209;28;1861;-58
2023/12/27 12:55:47;;;;;;;;;;;;;;;20.87;37.91;95928.94;10462428;28;1918;-60
2023/12/27 13:00:50;;;;;;;;;;;;;;;20.86;37.92;95914.19;10452332;28;1888;-59
2023/12/27 13:05:51;;;;;;;;;;;;;;;20.90;38.06;95899.41;10458765;28;2406;-60
2023/12/27 13:10:51;;;;;;;;;;;;;;;20.90;37.80;95894.13;10460369;28;2025;-59
2023/12/27 13:15:51;;;;;;;;;;;;;;;20.86;38.10;95884.41;10465134;28;5094;-59
2023/12/27 13:20:52;;;;;;;;;;;;;;;20.88;38.13;95871.75;10463865;28;1994;-60
2023/12/27 13:25:53;;;;;;;;;;;;;;;20.88;37.87;95863.84;10464367;28;1980;-60
2023/12/27 13:30:53;;;;;;;;;;;;;;;20.86;37.69;95866.75;10445790;28;2035;-59
2023/12/27 13:35:54;;;;;;;;;;;;;;;20.81;37.74;95864.13;10461623;28;2048;-59
2023/12/27 13:40:54;;;;;;;;;;;;;;;20.76;37.64;95858.91;10465708;28;2119;-59
2023/12/27 13:45:54;;;;;;;;;;;;;;;20.73;37.50;95853.41;10462750;28;1913;-59
2023/12/27 13:50:56;;;;;;;;;;;;;;;20.69;37.47;95852.38;10463542;28;2491;-59
2023/12/27 13:55:56;;;;;;;;;;;;;;;20.66;37.46;95851.06;10464367;28;1989;-59
2023/12/27 14:00:57;;;;;;;;;;;;;;;20.64;37.44;95850.53;10460959;28;2001;-60
2023/12/27 14:05:57;;;;;;;;;;;;;;;20.68;37.64;95845.50;10458730;28;2049;-58
2023/12/27 14:10:57;;;;;;;;;;;;;;;20.62;37.84;95841.34;10460441;28;2027;-61
2023/12/27 14:15:59;;;;;;;;;;;;;;;20.57;38.09;95833.44;10454610;28;5057;-61
2023/12/27 14:21:00;;;;;;;;;;;;;;;20.55;38.35;95836.34;10459222;28;1888;-58
2023/12/27 14:26:02;;;;;;;;;;;;;;;20.51;38.78;95837.97;10458996;28;2011;-60
2023/12/27 14:31:02;;;;;;;;;;;;;;;20.49;38.85;95829.53;10456145;28;2397;-60
2023/12/27 14:36:04;;;;;;;;;;;;;;;20.47;39.04;95826.41;10438652;28;2085;-60
2023/12/27 14:41:06;;;;;;;;;;;;;;;20.44;38.39;95832.22;10456421;28;1943;-60
2023/12/27 14:46:09;;;;;;;;;;;;;;;20.47;37.88;95825.59;10459482;28;2002;-60
2023/12/27 14:51:10;;;;;;;;;;;;;;;20.55;38.33;95820.56;10456176;28;1943;-61
2023/12/27 14:56:10;;;;;;;;;;;;;;;20.58;37.94;95814.75;10460302;28;2229;-60
2023/12/27 15:01:11;;;;;;;;;;;;;;;20.59;38.08;95811.06;10459656;28;1863;-61
2023/12/27 15:06:11;;;;;;;;;;;;;;;20.58;37.89;95806.84;10456951;28;1984;-61
2023/12/27 15:11:15;;;;;;;;;;;;;;;20.64;38.13;95808.41;10458449;28;2404;-63
2023/12/27 15:16:18;;;;;;;;;;;;;;;20.66;37.85;95810.75;10458012;28;5209;-60
2023/12/27 15:21:18;;;;;;;;;;;;;;;20.71;37.89;95808.09;10454728;28;2127;-61
2023/12/27 15:26:19;;;;;;;;;;;;;;;20.68;38.24;95816.53;10465923;28;2077;-62
2023/12/27 15:31:19;;;;;;;;;;;;;;;20.71;37.97;95813.38;10470896;28;1884;-61
2023/12/27 15:36:19;;;;;;;;;;;;;;;20.78;37.56;95819.91;10468497;28;1959;-61
2023/12/27 15:41:26;;;;;;;;;;;;;;;20.85;37.09;95804.59;10478491;28;1867;-61
2023/12/27 15:46:27;;;;;;;;;;;;;;;20.90;37.26;95799.28;10466455;28;1902;-61
2023/12/27 15:51:40;;;;;;;;;;;;;;;20.96;36.77;95795.53;10467470;28;2068;-61
2023/12/27 15:56:44;;;;;;;;;;;;;;;20.98;36.96;95803.16;10469390;28;2440;-62
2023/12/27 16:01:45;;;;;;;;;;;;;;;21.02;36.58;95810.28;10468307;28;1878;-62
2023/12/27 16:06:45;;;;;;;;;;;;;;;21.06;36.46;95808.66;10449962;28;2037;-61
2023/12/27 16:11:47;;;;;;;;;;;;;;;21.14;36.40;95806.53;10455917;28;5137;-60
2023/12/27 16:16:47;;;;;;;;;;;;;;;21.18;36.24;95803.06;10452422;28;2091;-62
2023/12/27 16:21:47;;;;;;;;;;;;;;;21.16;36.27;95799.91;10469121;28;2078;-61
2023/12/27 16:26:48;;;;;;;;;;;;;;;21.19;36.16;95807.25;10463162;28;1914;-61
2023/12/27 16:31:48;;;;;;;;;;;;;;;21.21;36.11;95805.13;10473331;28;1912;-62
2023/12/27 16:36:48;;;;;;;;;;;;;;;21.19;36.08;95803.84;10470643;28;2032;-62
2023/12/27 16:41:48;;;;;;;;;;;;;;;21.25;35.53;95792.97;10468936;28;1946;-61
2023/12/27 16:46:49;;;;;;;;;;;;;;;21.25;35.75;95787.69;10467055;28;2135;-62
2023/12/27 16:51:49;;;;;;;;;;;;;;;21.34;35.77;95790.53;10464075;28;2006;-64
2023/12/27 16:56:50;;;;;;;;;;;;;;;21.34;35.84;95790.53;10469680;28;2044;-64
2023/12/27 17:01:50;;;;;;;;;;;;;;;21.30;37.25;95805.34;10450591;28;1839;-67
2023/12/27 17:06:50;;;;;;;;;;;;;;;21.31;37.09;95802.41;10460586;28;2012;-62
2023/12/27 17:11:51;;;;;;;;;;;;;;;21.36;36.78;95798.94;10461867;28;5081;-63
2023/12/27 17:16:51;;;;;;;;;;;;;;;21.41;36.47;95806.84;10444272;28;1866;-63
2023/12/27 17:21:51;;;;;;;;;;;;;;;21.34;36.62;95801.09;10463019;28;1887;-63
2023/12/27 17:26:51;;;;;;;;;;;;;;;21.33;36.50;95802.94;10457256;28;1942;-63
2023/12/27 17:31:56;;;;;;;;;;;;;;;21.36;36.51;95810.28;10464897;28;2267;-63
2023/12/27 17:36:58;;;;;;;;;;;;;;;21.35;36.19;95807.94;10444471;28;2037;-63
2023/12/27 17:41:58;;;;;;;;;;;;;;;21.35;36.25;95807.94;10442869;28;2097;-63
2023/12/27 17:46:59;;;;;;;;;;;;;;;21.34;36.06;95811.63;10464297;28;2345;-63
2023/12/27 17:51:59;;;;;;;;;;;;;;;21.36;35.89;95815.56;10443946;28;1929;-62
2023/12/27 17:57:00;;;;;;;;;;;;;;;21.38;36.95;95797.63;10455280;28;1999;-60
2023/12/27 18:02:00;;;;;;;;;;;;;;;21.35;36.43;95808.72;10460355;28;1981;-59
2023/12/27 18:07:01;;;;;;;;;;;;;;;21.39;35.84;95798.41;10458898;28;2078;-59
2023/12/27 18:12:03;;;;;;;;;;;;;;;21.34;36.14;95801.88;10455991;28;5075;-59
2023/12/27 18:17:03;;;;;;;;;;;;;;;21.39;36.24;95804.44;10458481;28;1885;-60
2023/12/27 18:22:03;;;;;;;;;;;;;;;21.38;35.86;95791.56;10459210;28;1907;-59
2023/12/27 18:27:06;;;;;;;;;;;;;;;21.38;35.41;95802.09;10458892;28;2012;-59
2023/12/27 18:32:10;;;;;;;;;;;;;;;21.39;35.91;95795.78;10443869;28;1946;-59
2023/12/27 18:37:10;;;;;;;;;;;;;;;21.38;35.46;95791.56;10463055;28;2032;-59
2023/12/27 18:42:10;;;;;;;;;;;;;;;21.44;35.54;95793.09;10468291;28;2406;-60
2023/12/27 18:47:11;;;;;;;;;;;;;;;21.48;36.63;95786.19;10465647;28;1972;-60
2023/12/27 18:52:12;;;;;;;;;;;;;;;21.56;35.61;95791.66;10457001;28;1356;-59
2023/12/27 18:57:12;;;;;;;;;;;;;;;21.54;35.12;95790.34;10460506;28;1444;-60
2023/12/27 19:02:13;;;;;;;;;;;;;;;21.53;35.53;95789.59;10467068;28;1622;-59
2023/12/27 19:07:13;;;;;;;;;;;;;;;21.52;35.17;95793.28;10461824;28;1971;-60
2023/12/27 19:12:13;;;;;;;;;;;;;;;21.53;34.83;95788.78;10462929;28;5108;-59
2023/12/27 19:17:14;;;;;;;;;;;;;;;21.56;35.08;95793.50;10462429;28;1452;-60
2023/12/27 19:22:14;;;;;;;;;;;;;;;21.57;34.61;95797.72;10455259;28;1882;-59
2023/12/27 19:27:14;;;;;;;;;;;;;;;21.56;34.66;95798.75;10462052;28;1987;-59
2023/12/27 19:32:15;;;;;;;;;;;;;;;21.55;34.82;95795.38;10458685;28;1520;-60
2023/12/27 19:37:16;;;;;;;;;;;;;;;21.54;34.97;95795.63;10458221;28;2366;-55
2023/12/27 19:42:16;;;;;;;;;;;;;;;21.56;34.49;95789.00;10465076;28;1471;-60
2023/12/27 19:47:17;;;;;;;;;;;;;;;21.57;34.13;95795.06;10459358;28;1903;-60
2023/12/27 19:52:17;;;;;;;;;;;;;;;21.58;34.28;95778.16;10461982;28;1416;-60
2023/12/27 19:57:17;;;;;;;;;;;;;;;21.60;34.39;95783.94;10460073;28;1464;-60
2023/12/27 20:02:18;;;;;;;;;;;;;;;21.59;34.05;95785.03;10466070;28;1491;-59
2023/12/27 20:07:18;;;;;;;;;;;;;;;21.62;33.96;95787.88;10457238;28;1922;-60
2023/12/27 20:12:18;;;;;;;;;;;;;;;21.61;34.04;95785.53;10464247;28;4952;-60
2023/12/27 20:17:18;;;;;;;;;;;;;;;21.65;33.58;95776.00;10471654;28;2296;-60
2023/12/27 20:22:19;;;;;;;;;;;;;;;21.65;34.06;95776.00;10449223;28;1907;-59
2023/12/27 20:27:19;;;;;;;;;;;;;;;21.61;34.49;95775.78;10465993;28;1894;-60
2023/12/27 20:32:19;;;;;;;;;;;;;;;21.65;34.02;95757.53;10470471;28;1583;-59
2023/12/27 20:37:19;;;;;;;;;;;;;;;21.64;34.13;95753.31;10468650;28;1500;-60
2023/12/27 20:42:20;;;;;;;;;;;;;;;21.63;33.93;95751.75;10466852;28;1502;-60
2023/12/27 20:47:20;;;;;;;;;;;;;;;21.67;33.95;95752.75;10466362;28;1910;-59
2023/12/27 20:52:20;;;;;;;;;;;;;;;21.69;33.58;95758.56;10464230;28;1553;-60
2023/12/27 20:57:21;;;;;;;;;;;;;;;21.70;33.73;95762.78;10463635;28;1587;-59
2023/12/27 21:02:21;;;;;;;;;;;;;;;21.66;34.17;95777.56;10465919;28;1488;-58
2023/12/27 21:07:22;;;;;;;;;;;;;;;21.74;33.92;95774.34;10465834;28;1975;-59
2023/12/27 21:12:23;;;;;;;;;;;;;;;21.69;33.95;95782.28;10462775;28;5098;-61
2023/12/27 21:17:23;;;;;;;;;;;;;;;21.59;35.22;95791.09;10465577;28;2305;-60
2023/12/27 21:22:23;;;;;;;;;;;;;;;21.57;34.16;95787.16;10458273;28;2043;-60
2023/12/27 21:27:24;;;;;;;;;;;;;;;21.53;34.47;95778.22;10465011;28;1910;-60
2023/12/27 21:32:24;;;;;;;;;;;;;;;21.49;33.96;95777.22;10458592;28;1627;-60
2023/12/27 21:37:24;;;;;;;;;;;;;;;21.45;34.11;95790.16;10461342;28;1640;-60
2023/12/27 21:42:24;;;;;;;;;;;;;;;21.48;33.99;95796.72;10458576;28;2002;-60
2023/12/27 21:47:27;;;;;;;;;;;;;;;21.47;33.80;95811.78;10466067;28;1977;-60
2023/12/27 21:52:27;;;;;;;;;;;;;;;21.43;34.13;95820.53;10460362;28;1907;-60
2023/12/27 21:57:27;;;;;;;;;;;;;;;21.33;34.65;95817.97;10457318;28;2044;-61
2023/12/27 22:02:28;;;;;;;;;;;;;;;21.31;34.39;95822.75;10462365;28;1871;-60
2023/12/27 22:07:28;;;;;;;;;;;;;;;21.23;34.47;95842.56;10456880;28;1996;-61
2023/12/27 22:12:28;;;;;;;;;;;;;;;21.10;34.77;95832.66;10454331;28;5037;-59
2023/12/27 22:17:29;;;;;;;;;;;;;;;21.05;34.87;95841.38;10457181;28;2085;-61
2023/12/27 22:22:29;;;;;;;;;;;;;;;20.94;34.74;95831.91;10459487;28;1949;-61
2023/12/27 22:27:30;;;;;;;;;;;;;;;20.85;34.69;95825.66;10459629;28;1902;-61
2023/12/27 22:32:31;;;;;;;;;;;;;;;20.82;34.61;95817.50;10461858;28;1877;-61
2023/12/27 22:37:32;;;;;;;;;;;;;;;20.73;34.79;95804.13;10457302;28;1859;-61
2023/12/27 22:42:32;;;;;;;;;;;;;;;20.69;34.62;95795.19;10462093;28;1866;-61
2023/12/27 22:47:32;;;;;;;;;;;;;;;20.64;34.95;95803.13;10452447;28;2095;-61
2023/12/27 22:52:32;;;;;;;;;;;;;;;20.61;34.92;95803.66;10462563;28;1951;-61
2023/12/27 22:57:33;;;;;;;;;;;;;;;20.57;34.81;95813.16;10466710;28;2375;-61
2023/12/27 23:02:33;;;;;;;;;;;;;;;20.55;34.90;95851.38;10454098;28;2018;-60
2023/12/27 23:07:33;;;;;;;;;;;;;;;20.52;35.37;95857.97;10464936;28;2229;-60
2023/12/27 23:12:34;;;;;;;;;;;;;;;20.50;35.05;95862.72;10454774;28;5077;-61
2023/12/27 23:17:34;;;;;;;;;;;;;;;20.46;35.04;95864.31;10462729;28;2032;-61
2023/12/27 23:22:34;;;;;;;;;;;;;;;20.43;35.03;95864.84;10460856;28;1904;-60
2023/12/27 23:27:35;;;;;;;;;;;;;;;20.40;35.09;95860.16;10455700;28;2004;-61
2023/12/27 23:32:35;;;;;;;;;;;;;;;20.38;34.99;95864.09;10454721;28;2052;-61
2023/12/27 23:37:35;;;;;;;;;;;;;;;20.35;35.25;95846.97;10456654;28;2105;-61
2023/12/27 23:42:35;;;;;;;;;;;;;;;20.32;35.38;95850.13;10459531;28;1961;-61
2023/12/27 23:47:36;;;;;;;;;;;;;;;20.30;35.17;95844.34;10469682;28;1982;-61
2023/12/27 23:52:36;;;;;;;;;;;;;;;20.29;34.99;95848.06;10442746;28;2061;-61
2023/12/27 23:57:36;;;;;;;;;;;;;;;20.25;35.03;95863.63;10468200;28;1919;-61
